Time;durP1;ratioP1;P1;durP2;ratioP2;P2;SDS_P1;SDS_P2;PMS_P1;PMS_P2;Temp;Humidity;BMP_temperature;BMP_pressure;BME280_temperature;BME280_humidity;BME280_pressure;Samples;Min_cycle;Max_cycle;Signal;HPM_P1;HPM_P2
2023/05/20 00:00:12;;;;;;;4.70;2.03;;;;;;;11.25;100.00;101390.44;690433;28;1213;-56
2023/05/20 00:00:32;;;;;;;4.25;2.00;;;;;;;11.24;100.00;101394.81;689964;28;1203;-57
2023/05/20 00:00:53;;;;;;;3.63;1.73;;;;;;;11.24;100.00;101386.94;688377;28;4304;-57
2023/05/20 00:01:13;;;;;;;3.95;1.90;;;;;;;11.25;100.00;101387.81;690537;28;1197;-57
2023/05/20 00:01:33;;;;;;;3.73;2.00;;;;;;;11.28;100.00;101386.94;691726;28;1333;-57
2023/05/20 00:01:54;;;;;;;4.20;1.90;;;;;;;11.28;100.00;101386.94;690040;28;1547;-57
2023/05/20 00:02:15;;;;;;;4.10;1.80;;;;;;;11.25;100.00;101386.06;690862;28;1155;-57
2023/05/20 00:02:36;;;;;;;4.45;1.90;;;;;;;11.25;100.00;101390.44;690362;28;1186;-58
2023/05/20 00:02:56;;;;;;;3.67;1.90;;;;;;;11.25;100.00;101385.19;689378;28;1462;-58
2023/05/20 00:03:19;;;;;;;2.97;1.87;;;;;;;11.25;100.00;101380.81;690156;28;1215;-57
2023/05/20 00:03:39;;;;;;;4.05;2.10;;;;;;;11.27;100.00;101388.69;689152;28;4431;-58
2023/05/20 00:03:59;;;;;;;3.70;1.93;;;;;;;11.27;100.00;101383.47;686161;28;1490;-57
2023/05/20 00:04:20;;;;;;;3.22;1.98;;;;;;;11.27;100.00;101382.56;688031;28;1262;-57
2023/05/20 00:04:40;;;;;;;3.30;1.97;;;;;;;11.27;100.00;101382.56;689299;28;1361;-57
2023/05/20 00:05:01;;;;;;;4.13;1.88;;;;;;;11.28;100.00;101385.19;684031;28;1492;-57
2023/05/20 00:05:22;;;;;;;3.90;1.98;;;;;;;11.28;100.00;101385.19;684116;28;1096;-57
2023/05/20 00:05:43;;;;;;;4.20;2.22;;;;;;;11.28;100.00;101389.56;683117;28;1980;-57
2023/05/20 00:06:03;;;;;;;3.50;1.90;;;;;;;11.25;100.00;101382.56;683721;28;1034;-57
2023/05/20 00:06:24;;;;;;;3.37;1.80;;;;;;;11.24;100.00;101386.94;684672;28;1975;-57
2023/05/20 00:06:44;;;;;;;3.40;2.00;;;;;;;11.22;100.00;101380.81;685631;28;4353;-57
2023/05/20 00:07:04;;;;;;;3.20;1.90;;;;;;;11.24;100.00;101381.72;686331;28;1757;-57
2023/05/20 00:07:25;;;;;;;3.10;1.90;;;;;;;11.23;100.00;101382.56;687484;28;1219;-58
2023/05/20 00:07:45;;;;;;;3.43;1.93;;;;;;;11.22;100.00;101390.41;687784;28;1161;-57
2023/05/20 00:08:08;;;;;;;3.15;1.90;;;;;;;11.19;100.00;101386.03;686428;28;1506;-57
2023/05/20 00:08:28;;;;;;;4.80;1.92;;;;;;;11.18;100.00;101386.91;687963;28;1156;-57
2023/05/20 00:08:49;;;;;;;4.00;1.80;;;;;;;11.17;100.00;101382.56;688022;28;1191;-57
2023/05/20 00:09:09;;;;;;;3.70;1.80;;;;;;;11.16;100.00;101380.81;686489;28;1647;-57
2023/05/20 00:09:30;;;;;;;3.10;1.80;;;;;;;11.17;100.00;101384.28;687546;28;1195;-57
2023/05/20 00:09:50;;;;;;;3.97;2.05;;;;;;;11.16;100.00;101383.41;689762;28;4434;-57
2023/05/20 00:10:10;;;;;;;4.47;1.90;;;;;;;11.15;100.00;101386.91;689379;28;1714;-60
2023/05/20 00:10:31;;;;;;;4.38;1.80;;;;;;;11.15;100.00;101384.28;690332;28;1104;-57
2023/05/20 00:10:51;;;;;;;3.30;1.80;;;;;;;11.13;100.00;101386.03;689834;28;1536;-57
2023/05/20 00:11:11;;;;;;;3.23;1.80;;;;;;;11.15;100.00;101383.41;690381;28;1052;-57
2023/05/20 00:11:32;;;;;;;3.75;1.90;;;;;;;11.12;100.00;101386.88;690592;28;1132;-57
2023/05/20 00:11:52;;;;;;;4.33;1.80;;;;;;;11.13;100.00;101383.41;689338;28;1456;-57
2023/05/20 00:12:12;;;;;;;4.07;1.80;;;;;;;11.12;100.00;101376.44;689747;28;1179;-57
2023/05/20 00:12:34;;;;;;;3.63;1.80;;;;;;;11.09;100.00;101384.28;690413;28;1156;-57
2023/05/20 00:12:54;;;;;;;6.20;1.90;;;;;;;11.11;100.00;101386.88;689108;28;4559;-58
2023/05/20 00:13:14;;;;;;;4.00;1.90;;;;;;;11.11;100.00;101387.75;690129;28;1182;-57
2023/05/20 00:13:35;;;;;;;4.50;2.00;;;;;;;11.06;100.00;101382.50;690426;28;1136;-57
2023/05/20 00:13:55;;;;;;;3.53;1.90;;;;;;;11.07;100.00;101378.13;689720;28;1524;-57
2023/05/20 00:14:15;;;;;;;4.00;1.70;;;;;;;11.07;100.00;101386.00;690228;28;1195;-57
2023/05/20 00:14:36;;;;;;;4.07;1.70;;;;;;;11.05;100.00;101385.97;690591;28;1263;-57
2023/05/20 00:14:57;;;;;;;3.40;1.70;;;;;;;11.06;100.00;101384.22;689454;28;1549;-58
2023/05/20 00:15:17;;;;;;;3.60;1.80;;;;;;;11.05;100.00;101385.13;691824;28;1312;-57
2023/05/20 00:15:37;;;;;;;3.63;1.83;;;;;;;11.04;100.00;101375.50;690366;28;4511;-58
2023/05/20 00:15:58;;;;;;;3.23;1.80;;;;;;;11.05;100.00;101385.13;686710;28;1584;-57
2023/05/20 00:16:18;;;;;;;5.22;2.05;;;;;;;11.05;100.00;101387.75;684115;28;3142;-57
2023/05/20 00:16:39;;;;;;;5.40;2.10;;;;;;;11.02;100.00;101387.69;684860;28;1249;-58
2023/05/20 00:16:59;;;;;;;4.40;1.92;;;;;;;10.98;100.00;101380.69;683508;28;1485;-57
2023/05/20 00:17:19;;;;;;;3.90;1.80;;;;;;;10.98;100.00;101385.94;685075;28;1132;-57
2023/05/20 00:17:40;;;;;;;3.27;1.80;;;;;;;10.95;100.00;101384.19;684787;28;1169;-57
2023/05/20 00:18:01;;;;;;;4.27;2.10;;;;;;;10.99;100.00;101383.31;683183;28;1558;-57
2023/05/20 00:18:21;;;;;;;5.80;2.10;;;;;;;11.02;100.00;101385.09;684925;28;1363;-57
2023/05/20 00:18:41;;;;;;;5.73;1.90;;;;;;;11.00;100.00;101382.47;682464;28;4549;-56
2023/05/20 00:19:02;;;;;;;3.97;1.80;;;;;;;11.03;100.00;101387.69;683745;28;1490;-58
2023/05/20 00:19:22;;;;;;;4.10;1.93;;;;;;;11.01;100.00;101385.97;685049;28;1220;-57
2023/05/20 00:19:42;;;;;;;3.73;1.87;;;;;;;10.99;100.00;101385.06;682137;28;1086;-57
2023/05/20 00:20:04;;;;;;;3.83;1.92;;;;;;;10.97;100.00;101384.22;680594;28;1423;-58
2023/05/20 00:20:24;;;;;;;4.13;2.00;;;;;;;10.95;100.00;101383.31;682553;28;1220;-57
2023/05/20 00:20:45;;;;;;;3.80;1.92;;;;;;;10.97;100.00;101384.22;681926;28;1015;-57
2023/05/20 00:21:05;;;;;;;4.50;2.20;;;;;;;10.94;100.00;101385.06;681248;28;1583;-59
2023/05/20 00:21:25;;;;;;;4.50;2.13;;;;;;;10.94;100.00;101386.78;682630;28;1105;-57
2023/05/20 00:21:46;;;;;;;4.00;2.00;;;;;;;10.95;100.00;101385.91;685040;28;4312;-58
2023/05/20 00:22:07;;;;;;;4.47;2.10;;;;;;;10.95;100.00;101386.81;686102;28;1556;-57
2023/05/20 00:22:27;;;;;;;3.90;1.75;;;;;;;10.95;100.00;101385.91;687453;28;1116;-57
2023/05/20 00:22:47;;;;;;;3.20;1.60;;;;;;;10.94;100.00;101386.78;687861;28;1144;-57
2023/05/20 00:23:08;;;;;;;3.30;1.67;;;;;;;10.92;100.00;101386.78;686452;28;1134;-58
2023/05/20 00:23:28;;;;;;;4.15;1.90;;;;;;;10.88;100.00;101385.00;687669;28;1281;-60
2023/05/20 00:23:49;;;;;;;3.60;1.80;;;;;;;10.86;100.00;101390.25;687389;28;1065;-57
2023/05/20 00:24:09;;;;;;;3.83;1.90;;;;;;;10.88;100.00;101385.91;685888;28;1467;-57
2023/05/20 00:24:30;;;;;;;4.37;2.07;;;;;;;10.86;100.00;101390.25;687824;28;1259;-58
2023/05/20 00:24:50;;;;;;;3.78;1.92;;;;;;;10.84;100.00;101386.75;689826;28;4423;-58
2023/05/20 00:25:13;;;;;;;3.40;1.90;;;;;;;10.88;100.00;101390.25;689175;28;1124;-58
2023/05/20 00:25:33;;;;;;;3.30;1.80;;;;;;;10.87;100.00;101388.50;690551;28;1228;-57
2023/05/20 00:25:54;;;;;;;3.47;1.70;;;;;;;10.88;100.00;101383.28;689127;28;1564;-57
2023/05/20 00:26:14;;;;;;;4.00;1.90;;;;;;;10.87;100.00;101386.75;690124;28;1973;-58
2023/05/20 00:26:35;;;;;;;3.30;1.85;;;;;;;10.87;100.00;101384.16;690400;28;1124;-57
2023/05/20 00:26:55;;;;;;;3.93;1.90;;;;;;;10.86;100.00;101386.75;688349;28;1578;-57
2023/05/20 00:27:16;;;;;;;3.05;1.85;;;;;;;10.85;100.00;101388.47;690600;28;1224;-57
2023/05/20 00:27:36;;;;;;;3.40;1.90;;;;;;;10.86;100.00;101389.38;689918;28;4349;-56
2023/05/20 00:27:56;;;;;;;4.60;1.87;;;;;;;10.86;100.00;101382.38;689268;28;1187;-57
2023/05/20 00:28:18;;;;;;;3.03;1.80;;;;;;;10.85;100.00;101382.38;690014;28;1230;-57
2023/05/20 00:28:38;;;;;;;3.10;1.85;;;;;;;10.84;100.00;101389.38;687593;28;2056;-57
2023/05/20 00:28:59;;;;;;;3.27;1.77;;;;;;;10.84;100.00;101383.25;683648;28;1609;-57
2023/05/20 00:29:20;;;;;;;4.20;1.90;;;;;;;10.83;100.00;101382.38;682209;29;1225;-57
2023/05/20 00:29:42;;;;;;;3.83;1.85;;;;;;;10.84;100.00;101383.25;680623;28;1105;-57
2023/05/20 00:30:02;;;;;;;3.40;1.85;;;;;;;10.84;100.00;101384.13;677616;29;1602;-58
2023/05/20 00:30:23;;;;;;;5.10;2.23;;;;;;;10.84;100.00;101383.25;678394;28;1153;-57
2023/05/20 00:30:43;;;;;;;4.47;2.25;;;;;;;10.84;100.00;101385.84;682011;28;4402;-61
2023/05/20 00:31:04;;;;;;;3.17;1.80;;;;;;;10.82;100.00;101385.00;683873;28;1569;-58
2023/05/20 00:31:24;;;;;;;3.40;1.90;;;;;;;10.81;100.00;101389.31;688486;28;1289;-58
2023/05/20 00:31:44;;;;;;;4.05;1.90;;;;;;;10.79;100.00;101391.06;688413;28;1053;-57
2023/05/20 00:32:05;;;;;;;3.97;1.90;;;;;;;10.79;100.00;101383.22;690939;28;1560;-57
2023/05/20 00:32:25;;;;;;;3.80;1.90;;;;;;;10.78;100.00;101389.31;690326;28;1187;-57
2023/05/20 00:32:46;;;;;;;3.97;1.90;;;;;;;10.75;100.00;101386.69;691229;28;1120;-57
2023/05/20 00:33:07;;;;;;;3.25;1.77;;;;;;;10.75;100.00;101388.44;689420;28;1050;-60
2023/05/20 00:33:27;;;;;;;3.42;1.70;;;;;;;10.76;100.00;101383.22;690253;28;1173;-57
2023/05/20 00:33:47;;;;;;;3.27;1.83;;;;;;;10.77;100.00;101387.56;689985;28;4353;-57
2023/05/20 00:34:08;;;;;;;4.22;1.92;;;;;;;10.80;100.00;101387.59;689457;28;1501;-57
2023/05/20 00:34:29;;;;;;;4.07;1.83;;;;;;;10.82;100.00;101383.25;690062;28;1096;-58
2023/05/20 00:34:59;;;;;;;3.23;1.70;;;;;;;10.80;100.00;101384.97;686953;28;3494;-57
2023/05/20 00:35:19;;;;;;;3.88;1.70;;;;;;;10.77;100.00;101382.31;687175;28;1276;-57
2023/05/20 00:35:40;;;;;;;4.55;1.80;;;;;;;10.76;100.00;101385.84;687488;28;1453;-58
2023/05/20 00:36:01;;;;;;;3.53;1.90;;;;;;;10.75;100.00;101386.69;686664;28;1486;-57
2023/05/20 00:36:21;;;;;;;3.53;1.85;;;;;;;10.73;100.00;101389.28;687253;28;1156;-57
2023/05/20 00:36:41;;;;;;;3.30;1.80;;;;;;;10.75;100.00;101384.06;686599;28;4441;-57
2023/05/20 00:37:02;;;;;;;4.28;2.03;;;;;;;10.73;100.00;101389.28;686280;28;1635;-57
2023/05/20 00:37:22;;;;;;;4.37;2.13;;;;;;;10.74;100.00;101387.53;687243;28;1795;-57
2023/05/20 00:37:43;;;;;;;3.10;1.80;;;;;;;10.76;100.00;101382.31;684991;28;1144;-57
2023/05/20 00:38:03;;;;;;;3.17;1.77;;;;;;;10.78;100.00;101383.22;683634;28;1814;-57
2023/05/20 00:38:23;;;;;;;3.17;1.70;;;;;;;10.77;100.00;101382.31;684988;28;1397;-57
2023/05/20 00:38:44;;;;;;;3.20;1.90;;;;;;;10.77;100.00;101384.94;686679;28;5233;-57
2023/05/20 00:39:05;;;;;;;4.65;1.80;;;;;;;10.79;100.00;101382.38;686287;28;1553;-57
2023/05/20 00:39:25;;;;;;;4.53;1.90;;;;;;;10.80;100.00;101384.09;686906;28;1109;-57
2023/05/20 00:39:45;;;;;;;4.37;2.00;;;;;;;10.77;100.00;101392.78;687650;28;4917;-57
2023/05/20 00:40:06;;;;;;;4.20;1.83;;;;;;;10.77;100.00;101392.78;684129;28;1450;-57
2023/05/20 00:40:27;;;;;;;3.20;1.80;;;;;;;10.75;100.00;101383.22;687481;28;1082;-57
2023/05/20 00:40:47;;;;;;;2.95;1.80;;;;;;;10.72;100.00;101384.06;687213;28;1136;-57
2023/05/20 00:41:10;;;;;;;3.30;1.73;;;;;;;10.77;100.00;101381.47;684484;28;1583;-57
2023/05/20 00:41:31;;;;;;;3.63;1.80;;;;;;;10.80;100.00;101384.09;687420;28;1399;-57
2023/05/20 00:41:51;;;;;;;4.65;1.80;;;;;;;10.78;100.00;101384.09;687303;28;1244;-57
2023/05/20 00:42:19;;;;;;;4.45;2.10;;;;;;;10.78;100.00;101385.84;686071;28;1486;-57
2023/05/20 00:42:39;;;;;;;4.00;1.95;;;;;;;10.78;100.00;101376.25;686577;28;4493;-57
2023/05/20 00:43:00;;;;;;;3.83;1.98;;;;;;;10.79;100.00;101385.84;685916;28;1461;-57
2023/05/20 00:43:21;;;;;;;3.17;1.87;;;;;;;10.80;100.00;101382.38;687572;28;1465;-57
2023/05/20 00:43:41;;;;;;;3.10;1.90;;;;;;;10.80;100.00;101381.47;687268;28;1417;-57
2023/05/20 00:44:02;;;;;;;3.60;1.98;;;;;;;10.83;100.00;101381.50;686171;28;1560;-58
2023/05/20 00:44:25;;;;;;;3.40;1.67;;;;;;;10.80;100.00;101382.38;685271;28;1315;-58
2023/05/20 00:44:45;;;;;;;3.10;1.60;;;;;;;10.80;100.00;101386.69;688152;28;1111;-57
2023/05/20 00:45:06;;;;;;;3.00;1.60;;;;;;;10.78;100.00;101385.84;685665;28;1194;-57
2023/05/20 00:45:27;;;;;;;3.03;1.70;;;;;;;10.76;100.00;101380.59;682985;28;1009;-57
2023/05/20 00:45:48;;;;;;;3.10;1.80;;;;;;;10.75;100.00;101380.59;682226;28;4429;-58
2023/05/20 00:46:09;;;;;;;3.42;1.80;;;;;;;10.73;100.00;101385.81;682618;28;1977;-57
2023/05/20 00:46:30;;;;;;;3.20;1.60;;;;;;;10.74;100.00;101382.31;685046;28;1105;-58
2023/05/20 00:46:50;;;;;;;3.10;1.90;;;;;;;10.75;100.00;101378.84;683058;28;1177;-58
2023/05/20 00:47:10;;;;;;;2.90;1.70;;;;;;;10.74;100.00;101382.31;682384;28;1680;-57
2023/05/20 00:47:33;;;;;;;3.00;1.73;;;;;;;10.75;100.00;101377.97;685523;28;1097;-57
2023/05/20 00:47:58;;;;;;;4.13;1.90;;;;;;;10.74;100.00;101387.53;684706;28;1232;-58
2023/05/20 00:48:20;;;;;;;4.15;1.70;;;;;;;10.73;100.00;101383.22;682196;28;1257;-57
2023/05/20 00:48:43;;;;;;;3.75;1.98;;;;;;;10.73;100.00;101377.97;682989;28;4283;-58
2023/05/20 00:49:03;;;;;;;4.28;2.00;;;;;;;10.75;100.00;101376.22;684872;28;1594;-57
2023/05/20 00:49:24;;;;;;;3.13;1.70;;;;;;;10.74;100.00;101377.09;687362;28;1175;-57
2023/05/20 00:49:45;;;;;;;3.07;1.80;;;;;;;10.75;100.00;101381.47;684749;28;1121;-57
2023/05/20 00:50:07;;;;;;;3.58;1.85;;;;;;;10.72;100.00;101384.94;684188;28;2371;-57
2023/05/20 00:50:27;;;;;;;4.70;2.00;;;;;;;10.73;100.00;101373.59;687562;28;1098;-57
2023/05/20 00:50:49;;;;;;;4.60;2.00;;;;;;;10.74;100.00;101377.09;684778;28;1109;-57
2023/05/20 00:51:11;;;;;;;4.20;1.80;;;;;;;10.73;100.00;101376.22;680117;28;1988;-58
2023/05/20 00:51:32;;;;;;;3.38;1.80;;;;;;;10.72;100.00;101378.84;682965;28;1268;-57
2023/05/20 00:51:54;;;;;;;4.50;1.90;;;;;;;10.73;100.00;101375.34;684511;28;4414;-57
2023/05/20 00:52:15;;;;;;;3.60;1.83;;;;;;;10.75;100.00;101373.63;684057;28;1280;-57
2023/05/20 00:52:36;;;;;;;3.60;1.73;;;;;;;10.74;100.00;101377.09;685736;28;1217;-56
2023/05/20 00:52:57;;;;;;;3.33;1.70;;;;;;;10.73;100.00;101381.44;687471;28;1980;-57
2023/05/20 00:53:18;;;;;;;4.05;1.90;;;;;;;10.74;100.00;101369.25;689243;28;1299;-57
2023/05/20 00:53:40;;;;;;;4.05;1.77;;;;;;;10.76;100.00;101372.75;689505;28;1255;-57
2023/05/20 00:54:01;;;;;;;3.67;1.88;;;;;;;10.75;100.00;101377.97;687017;28;1453;-58
2023/05/20 00:54:21;;;;;;;4.30;1.87;;;;;;;10.74;100.00;101382.31;687744;28;1386;-57
2023/05/20 00:54:42;;;;;;;4.25;1.80;;;;;;;10.74;100.00;101374.47;687860;28;4471;-57
2023/05/20 00:55:02;;;;;;;3.72;1.90;;;;;;;10.70;100.00;101370.97;685358;28;1463;-57
2023/05/20 00:55:24;;;;;;;3.17;1.80;;;;;;;10.71;100.00;101369.22;687884;28;1319;-57
2023/05/20 00:55:45;;;;;;;3.50;1.90;;;;;;;10.71;100.00;101371.84;687804;28;1158;-62
2023/05/20 00:56:06;;;;;;;4.30;1.73;;;;;;;10.71;100.00;101369.22;686788;28;1530;-57
2023/05/20 00:56:27;;;;;;;3.35;1.50;;;;;;;10.71;100.00;101372.72;687881;28;1208;-58
2023/05/20 00:56:48;;;;;;;4.33;1.97;;;;;;;10.71;100.00;101371.84;688596;28;1276;-57
2023/05/20 00:57:08;;;;;;;4.28;1.98;;;;;;;10.71;100.00;101372.72;684718;28;1449;-57
2023/05/20 00:57:29;;;;;;;3.00;1.60;;;;;;;10.71;100.00;101377.94;686997;28;1285;-57
2023/05/20 00:57:51;;;;;;;3.25;1.73;;;;;;;10.67;100.00;101372.69;684385;28;4545;-57
2023/05/20 00:58:11;;;;;;;3.80;1.98;;;;;;;10.68;100.00;101377.06;683935;28;1474;-57
2023/05/20 00:58:32;;;;;;;3.08;1.80;;;;;;;10.68;100.00;101377.06;684699;28;1379;-57
2023/05/20 00:58:53;;;;;;;3.30;1.70;;;;;;;10.65;100.00;101366.59;684233;28;1275;-58
2023/05/20 00:59:14;;;;;;;3.63;1.83;;;;;;;10.63;100.00;101377.00;682884;28;1611;-58
2023/05/20 00:59:36;;;;;;;4.53;2.00;;;;;;;10.65;100.00;101372.69;681287;28;1349;-57
2023/05/20 00:59:57;;;;;;;4.55;1.92;;;;;;;10.64;100.00;101370.94;683885;28;1517;-58
2023/05/20 01:00:18;;;;;;;4.00;2.03;;;;;;;10.68;100.00;101364.00;684999;28;1319;-59
2023/05/20 01:00:38;;;;;;;3.43;2.00;;;;;;;10.72;100.00;101369.22;683173;28;4588;-58
2023/05/20 01:00:58;;;;;;;4.65;1.90;;;;;;;10.70;100.00;101365.75;681877;28;1597;-57
2023/05/20 01:01:19;;;;;;;4.77;1.83;;;;;;;10.76;100.00;101369.25;685219;28;1501;-58
2023/05/20 01:01:40;;;;;;;3.70;1.77;;;;;;;10.75;100.00;101368.38;684369;28;1244;-57
2023/05/20 01:02:01;;;;;;;3.87;1.80;;;;;;;10.76;100.00;101372.75;686347;28;1569;-58
2023/05/20 01:02:22;;;;;;;3.20;1.80;;;;;;;10.72;100.00;101363.13;684416;28;1141;-57
2023/05/20 01:02:43;;;;;;;3.53;1.80;;;;;;;10.70;100.00;101364.84;685618;28;1366;-58
2023/05/20 01:03:04;;;;;;;3.63;1.83;;;;;;;10.69;100.00;101364.00;680861;28;1423;-57
2023/05/20 01:03:26;;;;;;;5.00;1.80;;;;;;;10.69;100.00;101363.13;681863;29;1265;-58
2023/05/20 01:03:47;;;;;;;2.83;1.63;;;;;;;10.69;100.00;101366.59;681230;28;4446;-55
2023/05/20 01:04:08;;;;;;;3.88;1.98;;;;;;;10.71;100.00;101372.72;681592;28;1529;-58
2023/05/20 01:04:30;;;;;;;3.88;1.92;;;;;;;10.70;100.00;101359.63;684942;28;1299;-58
2023/05/20 01:04:50;;;;;;;3.92;2.10;;;;;;;10.67;100.00;101359.63;683822;28;1351;-57
2023/05/20 01:05:11;;;;;;;3.05;1.73;;;;;;;10.75;100.00;101367.53;684654;28;1467;-58
2023/05/20 01:05:31;;;;;;;3.07;1.70;;;;;;;10.73;100.00;101363.16;688005;28;1326;-58
2023/05/20 01:05:52;;;;;;;3.38;1.90;;;;;;;10.73;100.00;101364.91;687548;28;1172;-57
2023/05/20 01:06:12;;;;;;;3.50;1.80;;;;;;;10.70;100.00;101363.13;687235;28;1977;-57
2023/05/20 01:06:33;;;;;;;3.13;1.70;;;;;;;10.68;100.00;101362.22;688302;28;1220;-59
2023/05/20 01:06:54;;;;;;;3.85;1.83;;;;;;;10.66;100.00;101357.84;689243;28;4390;-57
2023/05/20 01:07:16;;;;;;;3.65;1.77;;;;;;;10.66;100.00;101355.25;686920;28;1152;-58
2023/05/20 01:07:37;;;;;;;3.78;1.90;;;;;;;10.65;100.00;101362.22;687025;28;1164;-58
2023/05/20 01:07:57;;;;;;;3.63;1.97;;;;;;;10.66;100.00;101356.13;685995;28;1451;-58
2023/05/20 01:08:18;;;;;;;3.75;1.70;;;;;;;10.67;100.00;101359.63;687651;28;1327;-58
2023/05/20 01:08:39;;;;;;;3.23;1.87;;;;;;;10.63;100.00;101360.47;687577;28;1394;-57
2023/05/20 01:08:59;;;;;;;3.20;1.83;;;;;;;10.60;100.00;101350.84;686574;28;1600;-58
2023/05/20 01:09:20;;;;;;;4.63;1.80;;;;;;;10.63;100.00;101360.47;692143;28;1426;-57
2023/05/20 01:09:41;;;;;;;3.35;1.80;;;;;;;10.61;100.00;101359.59;688124;28;4626;-58
2023/05/20 01:10:02;;;;;;;3.33;1.75;;;;;;;10.60;100.00;101355.22;681800;28;1545;-57
2023/05/20 01:10:28;;;;;;;3.17;1.80;;;;;;;10.60;100.00;101358.69;682484;28;1325;-58
2023/05/20 01:10:56;;;;;;;3.53;1.70;;;;;;;10.58;100.00;101355.22;681457;29;1304;-57
2023/05/20 01:11:27;;;;;;;3.70;1.70;;;;;;;10.59;100.00;101356.06;679531;29;1268;-58
2023/05/20 01:12:03;;;;;;;3.30;1.70;;;;;;;10.60;100.00;101360.44;685050;28;1304;-58
2023/05/20 01:12:34;;;;;;;4.20;1.73;;;;;;;10.60;100.00;101358.69;687203;28;1315;-58
2023/05/20 01:13:00;;;;;;;3.15;1.70;;;;;;;10.59;100.00;101356.94;685415;28;4646;-59
2023/05/20 01:13:26;;;;;;;3.30;1.90;;;;;;;10.59;100.00;101359.56;682118;28;1475;-57
2023/05/20 01:13:56;;;;;;;3.33;1.80;;;;;;;10.59;100.00;101351.72;681360;28;1195;-58
2023/05/20 01:14:18;;;;;;;3.53;1.80;;;;;;;10.55;100.00;101352.59;679367;29;1646;-58
2023/05/20 01:14:47;;;;;;;3.72;1.92;;;;;;;10.55;100.00;101356.06;679617;28;1458;-58
2023/05/20 01:15:10;;;;;;;4.15;1.85;;;;;;;10.55;100.00;101357.81;683640;28;1578;-57
2023/05/20 01:15:30;;;;;;;3.30;1.77;;;;;;;10.53;100.00;101357.78;687392;28;1220;-58
2023/05/20 01:15:54;;;;;;;4.13;1.77;;;;;;;10.54;100.00;101356.91;686500;28;4386;-57
2023/05/20 01:16:17;;;;;;;3.58;1.70;;;;;;;10.53;100.00;101351.69;683378;28;1646;-58
2023/05/20 01:16:42;;;;;;;3.58;1.80;;;;;;;10.51;100.00;101356.91;687250;28;1255;-58
2023/05/20 01:17:09;;;;;;;3.03;1.67;;;;;;;10.53;100.00;101360.38;686210;28;1485;-58
2023/05/20 01:17:36;;;;;;;4.22;2.10;;;;;;;10.52;100.00;101356.06;687238;28;1306;-58
2023/05/20 01:18:04;;;;;;;3.42;1.80;;;;;;;10.53;100.00;101351.69;685626;28;1411;-58
2023/05/20 01:18:30;;;;;;;5.50;2.13;;;;;;;10.52;100.00;101352.53;687072;28;1208;-57
2023/05/20 01:18:54;;;;;;;3.30;1.90;;;;;;;10.51;100.00;101359.53;682998;28;4454;-58
2023/05/20 01:19:43;;;;;;;3.65;2.08;;;;;;;10.52;100.00;101356.06;683809;28;1510;-58
2023/05/20 01:20:08;;;;;;;3.40;1.80;;;;;;;10.51;100.00;101356.91;683527;28;1467;-58
2023/05/20 01:20:31;;;;;;;3.35;1.80;;;;;;;10.50;100.00;101357.75;684322;28;1156;-58
2023/05/20 01:20:54;;;;;;;4.50;1.80;;;;;;;10.51;100.00;101354.28;687543;28;1287;-57
2023/05/20 01:21:16;;;;;;;4.28;1.83;;;;;;;10.50;100.00;101357.75;686573;28;1479;-57
2023/05/20 01:21:37;;;;;;;3.90;1.70;;;;;;;10.50;100.00;101355.16;686701;28;4377;-58
2023/05/20 01:21:59;;;;;;;2.95;1.65;;;;;;;10.51;100.00;101359.53;686666;28;1485;-58
2023/05/20 01:22:27;;;;;;;4.25;1.70;;;;;;;10.49;100.00;101363.84;687566;28;1433;-57
2023/05/20 01:22:56;;;;;;;3.40;1.90;;;;;;;10.45;100.00;101358.59;687356;28;1244;-57
2023/05/20 01:23:17;;;;;;;5.50;2.00;;;;;;;10.44;100.00;101356.84;684782;28;1260;-58
2023/05/20 01:23:39;;;;;;;4.35;2.10;;;;;;;10.43;100.00;101355.13;684674;28;1434;-58
2023/05/20 01:24:04;;;;;;;3.67;2.10;;;;;;;10.44;100.00;101346.38;680892;28;1755;-57
2023/05/20 01:24:25;;;;;;;3.03;1.90;;;;;;;10.45;100.00;101348.16;682243;28;1391;-58
2023/05/20 01:24:52;;;;;;;3.20;1.90;;;;;;;10.45;100.00;101359.47;683428;28;4339;-57
2023/05/20 01:25:12;;;;;;;4.07;1.95;;;;;;;10.44;100.00;101356.84;680943;28;1573;-58
2023/05/20 01:25:32;;;;;;;4.70;2.03;;;;;;;10.43;100.00;101355.13;682128;29;1355;-58
2023/05/20 01:25:53;;;;;;;3.80;2.00;;;;;;;10.41;100.00;101354.22;680710;29;1462;-57
2023/05/20 01:26:13;;;;;;;3.50;2.10;;;;;;;10.37;100.00;101351.59;680530;28;1914;-57
2023/05/20 01:26:37;;;;;;;3.13;1.93;;;;;;;10.37;100.00;101355.91;681319;28;1325;-58
2023/05/20 01:26:58;;;;;;;3.50;1.92;;;;;;;10.39;100.00;101351.59;681351;28;1589;-58
2023/05/20 01:27:21;;;;;;;3.73;2.10;;;;;;;10.38;100.00;101357.69;685064;28;1494;-57
2023/05/20 01:27:42;;;;;;;3.40;2.05;;;;;;;10.39;100.00;101355.06;685531;28;4522;-58
2023/05/20 01:28:03;;;;;;;3.58;2.10;;;;;;;10.40;100.00;101355.97;686233;28;1519;-57
2023/05/20 01:28:26;;;;;;;3.38;2.00;;;;;;;10.41;100.00;101357.69;687491;28;1132;-58
2023/05/20 01:28:46;;;;;;;4.43;2.03;;;;;;;10.42;100.00;101364.69;687233;28;1162;-58
2023/05/20 01:29:07;;;;;;;3.83;1.95;;;;;;;10.43;100.00;101363.81;686060;28;1581;-57
2023/05/20 01:29:27;;;;;;;3.37;1.80;;;;;;;10.44;100.00;101354.22;687597;28;1243;-58
2023/05/20 01:29:50;;;;;;;4.05;1.85;;;;;;;10.43;100.00;101358.59;687543;28;1213;-57
2023/05/20 01:30:11;;;;;;;4.43;2.10;;;;;;;10.43;100.00;101355.13;683422;28;1502;-57
2023/05/20 01:30:37;;;;;;;3.20;1.90;;;;;;;10.43;100.00;101355.97;679407;29;1606;-58
2023/05/20 01:31:00;;;;;;;4.03;2.20;;;;;;;10.44;100.00;101354.22;682180;28;6232;-58
2023/05/20 01:31:24;;;;;;;3.47;1.98;;;;;;;10.44;100.00;101355.13;684651;28;2075;-58
2023/05/20 01:31:46;;;;;;;4.30;2.00;;;;;;;10.43;100.00;101355.97;683526;28;1204;-57
2023/05/20 01:32:11;;;;;;;6.93;2.20;;;;;;;10.41;100.00;101356.84;686163;28;1462;-58
2023/05/20 01:32:38;;;;;;;3.95;2.03;;;;;;;10.39;100.00;101362.91;688914;28;1478;-57
2023/05/20 01:33:06;;;;;;;3.80;1.90;;;;;;;10.37;100.00;101358.53;686320;28;1660;-58
2023/05/20 01:33:28;;;;;;;3.70;2.00;;;;;;;10.37;100.00;101353.31;687350;28;2237;-57
2023/05/20 01:33:53;;;;;;;3.08;1.85;;;;;;;10.38;100.00;101352.44;689823;28;4413;-58
2023/05/20 01:34:14;;;;;;;3.30;2.00;;;;;;;10.41;100.00;101354.22;689908;28;2129;-58
2023/05/20 01:34:36;;;;;;;3.40;1.80;;;;;;;10.42;100.00;101350.75;688586;28;1248;-58
2023/05/20 01:34:58;;;;;;;4.10;1.90;;;;;;;10.41;100.00;101352.47;686309;28;1512;-56
2023/05/20 01:35:20;;;;;;;3.45;1.90;;;;;;;10.42;100.00;101355.97;687001;28;1251;-59
2023/05/20 01:35:41;;;;;;;3.72;1.90;;;;;;;10.43;100.00;101355.97;684782;28;1410;-57
2023/05/20 01:36:05;;;;;;;3.50;2.03;;;;;;;10.47;100.00;101349.91;683736;28;1649;-58
2023/05/20 01:36:27;;;;;;;3.80;2.08;;;;;;;10.46;100.00;101347.28;678641;29;1269;-58
2023/05/20 01:36:48;;;;;;;4.20;2.00;;;;;;;10.43;100.00;101345.53;683022;28;4371;-58
2023/05/20 01:37:09;;;;;;;3.55;2.00;;;;;;;10.41;100.00;101347.25;683515;28;1433;-57
2023/05/20 01:37:30;;;;;;;3.63;2.13;;;;;;;10.38;100.00;101357.69;684667;28;1320;-57
2023/05/20 01:37:52;;;;;;;3.95;2.08;;;;;;;10.37;100.00;101342.84;682279;29;1355;-58
2023/05/20 01:38:18;;;;;;;4.22;1.92;;;;;;;10.41;100.00;101352.47;682880;28;1642;-58
2023/05/20 01:38:40;;;;;;;3.85;2.03;;;;;;;10.41;100.00;101356.84;686615;28;1446;-58
2023/05/20 01:39:01;;;;;;;3.67;1.90;;;;;;;10.38;100.00;101353.34;686030;28;5153;-58
2023/05/20 01:39:23;;;;;;;5.40;1.98;;;;;;;10.38;100.00;101352.44;687403;28;1613;-57
2023/05/20 01:39:45;;;;;;;4.90;1.95;;;;;;;10.46;100.00;101350.78;681133;28;4448;-58
2023/05/20 01:40:11;;;;;;;4.00;1.98;;;;;;;10.45;100.00;101346.41;682572;28;1646;-58
2023/05/20 01:40:33;;;;;;;3.85;2.20;;;;;;;10.44;100.00;101346.38;683427;28;2070;-58
2023/05/20 01:40:54;;;;;;;3.83;2.00;;;;;;;10.41;100.00;101357.69;683371;28;1261;-58
2023/05/20 01:41:15;;;;;;;4.07;2.10;;;;;;;10.39;100.00;101355.06;683476;28;1456;-57
2023/05/20 01:41:37;;;;;;;4.30;2.20;;;;;;;10.36;100.00;101352.44;681133;28;1320;-58
2023/05/20 01:41:57;;;;;;;3.92;1.95;;;;;;;10.42;100.00;101345.53;682338;28;1558;-58
2023/05/20 01:42:19;;;;;;;3.88;1.90;;;;;;;10.43;100.00;101352.50;683016;28;1425;-58